createdAt,value
2022-08-19T00:00:15.675Z,60.24
2022-08-19T00:03:04.581Z,64.87
2022-08-19T00:05:32.730Z,63.83
2022-08-19T00:08:01.121Z,58.74
2022-08-19T00:10:29.689Z,57.35
2022-08-19T00:12:57.606Z,58.39
2022-08-19T00:15:25.565Z,59.48
2022-08-19T00:17:53.676Z,60.66
2022-08-19T00:20:23.146Z,64.15
2022-08-19T00:22:51.467Z,64.86
2022-08-19T00:25:29.874Z,59.03
2022-08-19T00:28:00.091Z,57.39
2022-08-19T00:30:31.335Z,58.50
2022-08-19T00:32:59.825Z,59.51
2022-08-19T00:35:28.487Z,60.27
2022-08-19T00:37:57.257Z,64.87
2022-08-19T00:40:26.701Z,64.56
2022-08-19T00:42:54.967Z,58.21
2022-08-19T00:45:27.165Z,57.26
2022-08-19T00:47:55.127Z,58.95
2022-08-19T00:50:23.888Z,60.41
2022-08-19T00:52:52.939Z,64.21
2022-08-19T00:55:25.453Z,63.43
2022-08-19T00:57:58.010Z,58.57
2022-08-19T01:00:28.298Z,57.27
2022-08-19T01:02:56.981Z,58.98
2022-08-19T01:05:28.704Z,60.01
2022-08-19T01:07:59.979Z,61.11
2022-08-19T01:10:36.515Z,65.37
2022-08-19T01:13:05.882Z,63.70
2022-08-19T01:15:41.772Z,58.57
2022-08-19T01:18:13.940Z,57.02
2022-08-19T01:20:43.601Z,58.36
2022-08-19T01:23:12.673Z,59.36
2022-08-19T01:25:51.327Z,60.35
2022-08-19T01:28:39.968Z,65.15
2022-08-19T01:31:27.009Z,64.04
2022-08-19T01:33:57.909Z,58.29
2022-08-19T01:36:35.209Z,57.18
2022-08-19T01:39:06.726Z,57.93
2022-08-19T01:41:35.695Z,59.87
2022-08-19T01:44:17.511Z,60.36
2022-08-19T01:46:49.357Z,65.60
2022-08-19T01:49:20.817Z,63.74
2022-08-19T01:51:50.505Z,57.97
2022-08-19T01:54:27.189Z,56.90
2022-08-19T01:57:09.912Z,58.87
2022-08-19T01:59:38.395Z,58.97
2022-08-19T02:02:09.814Z,63.77
2022-08-19T02:04:41.476Z,64.63
2022-08-19T02:07:09.837Z,59.17
2022-08-19T02:09:37.839Z,57.47
2022-08-19T02:12:08.934Z,58.50
2022-08-19T02:14:37.577Z,59.63
2022-08-19T02:17:05.585Z,61.47
2022-08-19T02:19:33.863Z,65.73
2022-08-19T02:22:02.240Z,64.11
2022-08-19T02:24:30.246Z,58.57
2022-08-19T02:26:59.821Z,57.57
2022-08-19T02:29:27.730Z,58.84
2022-08-19T02:31:55.738Z,59.94
2022-08-19T02:34:26.002Z,64.23
2022-08-19T02:36:53.977Z,62.94
2022-08-19T02:39:21.926Z,59.44
2022-08-19T02:41:51.003Z,58.00
2022-08-19T02:44:29.969Z,59.82
2022-08-19T02:47:00.386Z,61.27
2022-08-19T02:49:28.406Z,66.05
2022-08-19T02:51:56.321Z,65.27
2022-08-19T02:54:24.330Z,61.67
2022-08-19T02:56:53.387Z,58.83
2022-08-19T02:59:23.097Z,58.38
2022-08-19T03:01:51.188Z,59.45
2022-08-19T03:04:20.578Z,61.19
2022-08-19T03:06:48.997Z,65.76
2022-08-19T03:09:19.334Z,65.20
2022-08-19T03:11:47.361Z,60.71
2022-08-19T03:14:19.221Z,57.48
2022-08-19T03:16:50.051Z,57.24
2022-08-19T03:19:20.335Z,58.59
2022-08-19T03:21:48.962Z,60.79
2022-08-19T03:24:18.484Z,65.16
2022-08-19T03:26:50.076Z,63.94
2022-08-19T03:29:30.584Z,58.93
2022-08-19T03:32:02.141Z,57.43
2022-08-19T03:34:35.821Z,59.06
2022-08-19T03:37:10.779Z,60.54
2022-08-19T03:39:40.229Z,65.63
2022-08-19T03:42:38.202Z,64.29
2022-08-19T03:44:56.642Z,61.23
2022-08-19T03:47:24.574Z,57.29
2022-08-19T03:49:52.578Z,56.77
2022-08-19T03:52:20.474Z,58.53
2022-08-19T03:54:48.542Z,59.07
2022-08-19T03:57:16.468Z,63.61
2022-08-19T03:59:45.216Z,63.35
2022-08-19T04:02:14.317Z,58.64
2022-08-19T04:04:44.734Z,57.03
2022-08-19T04:07:17.247Z,57.70
2022-08-19T04:09:45.280Z,59.10
2022-08-19T04:12:13.204Z,60.13
2022-08-19T04:14:41.322Z,65.02
2022-08-19T04:17:09.272Z,63.78
2022-08-19T04:19:37.589Z,58.80
2022-08-19T04:22:05.558Z,57.70
2022-08-19T04:24:36.875Z,58.66
2022-08-19T04:27:07.199Z,59.60
2022-08-19T04:29:35.369Z,64.12
2022-08-19T04:32:08.411Z,64.32
2022-08-19T04:35:02.601Z,59.08
2022-08-19T04:37:34.993Z,57.11
2022-08-19T04:40:25.910Z,58.18
2022-08-19T04:42:54.613Z,59.10
2022-08-19T04:45:23.318Z,60.41
2022-08-19T04:47:58.699Z,65.35
2022-08-19T04:50:45.382Z,64.75
2022-08-19T04:53:13.346Z,59.05
2022-08-19T04:55:43.206Z,57.19
2022-08-19T04:58:11.399Z,57.94
2022-08-19T05:00:41.056Z,58.78
2022-08-19T05:03:09.553Z,60.00
2022-08-19T05:05:45.190Z,60.52
2022-08-19T05:08:19.629Z,64.94
2022-08-19T05:10:59.669Z,63.89
2022-08-19T05:13:28.121Z,57.45
2022-08-19T05:16:01.052Z,55.73
2022-08-19T05:18:47.954Z,55.99
2022-08-19T05:21:37.456Z,56.99
2022-08-19T05:24:10.290Z,57.77
2022-08-19T05:26:40.034Z,58.09
2022-08-19T05:29:11.340Z,59.00
2022-08-19T05:31:42.318Z,59.27
2022-08-19T05:34:18.330Z,59.75
2022-08-19T05:36:49.750Z,60.47
2022-08-19T05:39:21.821Z,60.42
2022-08-19T05:41:54.601Z,60.52
2022-08-19T05:44:23.392Z,60.35
2022-08-19T05:46:54.090Z,60.31
2022-08-19T05:49:23.856Z,60.38
2022-08-19T05:51:52.723Z,60.08
2022-08-19T05:54:21.054Z,60.26
2022-08-19T05:56:49.146Z,60.44
2022-08-19T05:59:18.757Z,60.12
2022-08-19T06:01:53.341Z,60.11
2022-08-19T06:04:21.954Z,59.82
2022-08-19T06:06:54.841Z,60.02
2022-08-19T06:09:23.684Z,60.07
2022-08-19T06:12:01.000Z,59.97
2022-08-19T06:14:32.043Z,60.01
2022-08-19T06:17:06.883Z,60.38
2022-08-19T06:19:40.986Z,59.98
2022-08-19T06:22:09.341Z,59.95
2022-08-19T06:24:37.220Z,59.87
2022-08-19T06:27:06.752Z,59.78
2022-08-19T06:29:36.150Z,59.24
2022-08-19T06:32:05.141Z,59.18
2022-08-19T06:34:35.299Z,59.18
2022-08-19T06:37:03.938Z,58.56
2022-08-19T06:39:34.924Z,58.51
2022-08-19T06:42:08.683Z,58.51
2022-08-19T06:44:43.196Z,58.56
2022-08-19T06:47:23.043Z,58.30
2022-08-19T06:50:03.799Z,57.70
2022-08-19T06:52:36.648Z,57.75
2022-08-19T06:55:10.303Z,57.72
2022-08-19T06:57:38.896Z,57.80
2022-08-19T07:00:13.562Z,57.72
2022-08-19T07:02:48.158Z,57.61
2022-08-19T07:05:24.301Z,57.22
2022-08-19T07:07:52.281Z,57.00
2022-08-19T07:10:20.373Z,56.73
2022-08-19T07:12:50.362Z,56.57
2022-08-19T07:15:18.906Z,56.46
2022-08-19T07:17:52.567Z,56.74
2022-08-19T07:20:20.867Z,56.74
2022-08-19T07:22:49.339Z,56.68
2022-08-19T07:25:20.003Z,56.58
2022-08-19T07:27:54.276Z,56.26
2022-08-19T07:30:26.254Z,56.10
2022-08-19T07:32:54.613Z,55.89
2022-08-19T07:35:22.977Z,55.67
2022-08-19T07:37:50.935Z,55.72
2022-08-19T07:41:35.809Z,55.71
2022-08-19T07:44:06.525Z,55.41
2022-08-19T07:46:38.305Z,55.07
2022-08-19T07:49:08.137Z,54.20
2022-08-19T07:51:37.198Z,53.95
2022-08-19T07:54:05.544Z,53.62
2022-08-19T07:56:33.485Z,53.23
2022-08-19T07:59:01.944Z,52.90
2022-08-19T08:01:30.079Z,52.79
2022-08-19T08:04:17.870Z,52.54
2022-08-19T08:07:04.470Z,52.15
2022-08-19T08:09:39.383Z,51.81
2022-08-19T08:12:30.764Z,51.86
2022-08-19T08:15:08.256Z,51.95
2022-08-19T08:17:49.690Z,51.64
2022-08-19T08:20:20.730Z,51.68
2022-08-19T08:23:07.703Z,51.10
2022-08-19T08:25:37.023Z,50.67
2022-08-19T08:28:05.587Z,50.28
2022-08-19T08:30:35.717Z,49.90
2022-08-19T08:33:04.333Z,50.06
2022-08-19T08:35:32.451Z,50.08
2022-08-19T08:38:00.539Z,50.25
2022-08-19T08:40:45.880Z,49.54
2022-08-19T08:43:36.810Z,48.86
2022-08-19T08:46:12.146Z,48.43
2022-08-19T08:48:57.235Z,48.30
2022-08-19T08:51:33.066Z,47.99
2022-08-19T08:54:07.745Z,46.35
2022-08-19T08:56:44.383Z,43.51
2022-08-19T08:59:40.315Z,42.23
2022-08-19T09:02:09.354Z,42.97
2022-08-19T09:04:38.869Z,42.34
2022-08-19T09:07:34.952Z,41.86
2022-08-19T09:10:27.394Z,41.02
2022-08-19T09:12:58.238Z,40.12
2022-08-19T09:15:36.806Z,38.95
2022-08-19T09:18:07.503Z,37.38
2022-08-19T09:20:35.722Z,37.29
2022-08-19T09:23:04.588Z,37.71
2022-08-19T09:25:35.571Z,37.56
2022-08-19T09:28:05.456Z,37.05
2022-08-19T09:30:40.592Z,36.97
2022-08-19T09:33:08.784Z,37.42
2022-08-19T09:36:23.506Z,37.36
2022-08-19T09:40:24.870Z,37.97
2022-08-19T09:42:53.811Z,36.47
2022-08-19T09:45:53.408Z,36.97
2022-08-19T09:48:23.708Z,37.92
2022-08-19T09:50:52.670Z,36.31
2022-08-19T09:53:25.263Z,35.92
2022-08-19T09:55:56.373Z,35.51
2022-08-19T09:58:28.729Z,35.15
2022-08-19T10:00:59.502Z,35.51
2022-08-19T10:03:30.252Z,36.06
2022-08-19T10:06:00.536Z,35.22
2022-08-19T10:08:32.382Z,34.76
2022-08-19T10:11:27.521Z,35.55
2022-08-19T10:13:50.718Z,36.57
2022-08-19T10:16:26.213Z,37.32
2022-08-19T10:19:00.385Z,37.04
2022-08-19T10:21:35.515Z,36.56
2022-08-19T10:24:05.501Z,36.37
2022-08-19T10:26:38.201Z,36.90
2022-08-19T10:29:09.189Z,36.81
2022-08-19T10:32:00.689Z,35.56
2022-08-19T10:34:28.383Z,36.01
2022-08-19T10:37:01.164Z,35.97
2022-08-19T10:39:42.496Z,35.04
2022-08-19T10:42:14.281Z,34.61
2022-08-19T10:44:43.187Z,34.48
2022-08-19T10:47:17.777Z,33.48
2022-08-19T10:50:13.742Z,33.11
2022-08-19T10:52:50.100Z,33.50
2022-08-19T10:55:43.942Z,32.46
2022-08-19T10:58:14.526Z,32.92
2022-08-19T11:00:44.782Z,33.71
2022-08-19T11:03:13.325Z,33.18
2022-08-19T11:05:41.954Z,32.53
2022-08-19T11:08:22.285Z,32.81
2022-08-19T11:10:58.635Z,32.39
2022-08-19T11:13:26.659Z,33.08
2022-08-19T11:16:07.460Z,33.72
2022-08-19T11:18:43.975Z,34.21
2022-08-19T11:21:22.198Z,32.39
2022-08-19T11:23:53.134Z,32.60
2022-08-19T11:26:22.878Z,32.00
2022-08-19T11:28:56.318Z,31.71
2022-08-19T11:31:29.208Z,32.33
2022-08-19T11:33:58.271Z,32.49
2022-08-19T11:36:26.849Z,32.58
2022-08-19T11:38:55.762Z,31.91
2022-08-19T11:41:24.985Z,31.98
2022-08-19T11:43:55.302Z,32.22
2022-08-19T11:46:26.151Z,32.61
2022-08-19T11:48:55.042Z,32.31
2022-08-19T11:51:25.898Z,32.53
2022-08-19T11:53:55.717Z,32.38
2022-08-19T11:56:25.141Z,32.47
2022-08-19T11:58:54.593Z,31.81
2022-08-19T12:01:26.420Z,32.41
2022-08-19T12:03:56.863Z,33.02
2022-08-19T12:06:29.410Z,33.02
2022-08-19T12:08:58.279Z,32.28
2022-08-19T12:11:27.155Z,32.00
2022-08-19T12:13:55.375Z,31.99
2022-08-19T12:16:26.710Z,32.74
2022-08-19T12:18:56.067Z,32.09
2022-08-19T12:21:28.911Z,31.80
2022-08-19T12:23:59.386Z,31.36
2022-08-19T12:26:29.850Z,31.22
2022-08-19T12:29:00.089Z,30.60
2022-08-19T12:31:30.071Z,30.63
2022-08-19T12:33:58.292Z,30.16
2022-08-19T12:36:26.276Z,30.29
2022-08-19T12:38:54.388Z,30.86
2022-08-19T12:41:23.425Z,31.07
2022-08-19T12:43:51.686Z,30.85
2022-08-19T12:46:20.695Z,30.90
2022-08-19T12:48:55.360Z,30.51
2022-08-19T12:51:24.274Z,30.84
2022-08-19T12:53:52.205Z,30.95
2022-08-19T12:56:23.146Z,30.94
2022-08-19T12:58:52.898Z,31.15
2022-08-19T13:01:23.189Z,30.93
2022-08-19T13:03:53.624Z,30.31
2022-08-19T13:06:22.487Z,29.71
2022-08-19T13:08:50.855Z,29.77
2022-08-19T13:11:21.678Z,29.24
2022-08-19T13:13:52.083Z,28.49
2022-08-19T13:16:21.397Z,29.00
2022-08-19T13:18:52.998Z,29.68
2022-08-19T13:21:24.822Z,28.81
2022-08-19T13:23:53.989Z,28.36
2022-08-19T13:26:22.529Z,28.08
2022-08-19T13:29:09.504Z,28.16
2022-08-19T13:31:59.490Z,27.87
2022-08-19T13:34:36.253Z,27.30
2022-08-19T13:37:05.484Z,28.03
2022-08-19T13:39:35.020Z,28.22
2022-08-19T13:42:27.978Z,28.07
2022-08-19T13:44:56.015Z,28.03
2022-08-19T13:47:23.953Z,27.70
2022-08-19T13:49:56.442Z,27.72
2022-08-19T13:52:24.450Z,27.52
2022-08-19T13:54:52.913Z,27.92
2022-08-19T13:57:56.590Z,28.32
2022-08-19T14:00:27.588Z,28.57
2022-08-19T14:02:57.741Z,28.27
2022-08-19T14:05:27.977Z,27.90
2022-08-19T14:07:56.805Z,27.67
2022-08-19T14:10:26.427Z,27.48
2022-08-19T14:12:56.814Z,27.61
2022-08-19T14:15:25.567Z,27.74
2022-08-19T14:17:54.911Z,27.69
2022-08-19T14:20:48.192Z,28.07
2022-08-19T14:23:16.323Z,27.93
2022-08-19T14:25:45.495Z,27.95
2022-08-19T14:28:13.465Z,28.13
2022-08-19T14:30:41.421Z,28.48
2022-08-19T14:33:09.646Z,28.92
2022-08-19T14:40:04.720Z,29.21
2022-08-19T14:42:32.781Z,28.50
2022-08-19T14:45:01.969Z,28.77
2022-08-19T14:47:30.165Z,28.18
2022-08-19T14:50:00.896Z,28.57
2022-08-19T14:52:34.542Z,28.67
2022-08-19T14:55:02.780Z,29.18
2022-08-19T14:57:35.890Z,29.17
2022-08-19T15:00:58.101Z,29.69
2022-08-19T15:03:27.105Z,30.21
2022-08-19T15:05:56.019Z,30.43
2022-08-19T15:08:25.844Z,30.52
2022-08-19T15:10:54.506Z,30.73
2022-08-19T15:13:22.898Z,30.84
2022-08-19T15:15:50.826Z,31.02
2022-08-19T15:18:19.018Z,31.43
2022-08-19T15:20:48.454Z,31.63
2022-08-19T15:23:20.432Z,31.69
2022-08-19T15:25:49.088Z,31.67
2022-08-19T15:28:17.460Z,31.95
2022-08-19T15:30:45.548Z,32.13
2022-08-19T15:33:16.603Z,32.29
2022-08-19T15:35:45.356Z,32.83
2022-08-19T15:38:16.990Z,32.99
2022-08-19T15:40:45.754Z,33.45
2022-08-19T15:43:13.680Z,33.27
2022-08-19T15:45:46.262Z,33.76
2022-08-19T15:48:17.345Z,34.12
2022-08-19T15:50:45.312Z,34.61
2022-08-19T15:53:13.436Z,35.18
2022-08-19T15:55:48.304Z,35.65
2022-08-19T15:58:35.502Z,36.24
2022-08-19T16:01:26.830Z,36.77
2022-08-19T16:04:16.399Z,37.40
2022-08-19T16:06:52.292Z,38.12
2022-08-19T16:09:27.363Z,38.50
2022-08-19T16:12:02.490Z,38.45
2022-08-19T16:14:36.042Z,38.93
2022-08-19T16:17:07.208Z,39.37
2022-08-19T16:19:35.213Z,39.47
2022-08-19T16:22:03.245Z,39.69
2022-08-19T16:24:31.431Z,40.19
2022-08-19T16:27:01.563Z,40.38
2022-08-19T16:29:33.923Z,40.81
2022-08-19T16:32:07.254Z,41.57
2022-08-19T16:35:27.092Z,41.24
2022-08-19T16:37:55.390Z,41.63
2022-08-19T16:40:24.163Z,42.39
2022-08-19T16:42:53.731Z,42.26
2022-08-19T16:45:22.067Z,42.53
2022-08-19T16:47:50.799Z,42.97
2022-08-19T16:50:29.209Z,43.28
2022-08-19T16:53:07.686Z,44.02
2022-08-19T16:55:35.887Z,44.30
2022-08-19T16:58:56.033Z,44.62
2022-08-19T17:01:24.105Z,44.80
2022-08-19T17:03:53.105Z,45.13
2022-08-19T17:06:26.577Z,45.59
2022-08-19T17:08:58.431Z,46.38
2022-08-19T17:11:28.180Z,46.57
2022-08-19T17:13:59.077Z,46.70
2022-08-19T17:16:30.162Z,47.06
2022-08-19T17:19:00.991Z,47.49
2022-08-19T17:21:32.649Z,48.13
2022-08-19T17:24:02.768Z,48.39
2022-08-19T17:26:31.820Z,48.45
2022-08-19T17:29:00.750Z,48.67
2022-08-19T17:31:31.553Z,48.91
2022-08-19T17:34:00.288Z,48.95
2022-08-19T17:36:31.023Z,48.93
2022-08-19T17:39:00.854Z,49.35
2022-08-19T17:41:30.506Z,49.54
2022-08-19T17:43:58.554Z,50.00
2022-08-19T17:46:26.657Z,49.94
2022-08-19T17:48:57.778Z,50.05
2022-08-19T17:51:36.304Z,50.04
2022-08-19T17:54:05.787Z,50.11
2022-08-19T17:56:33.663Z,50.31
2022-08-19T17:59:01.902Z,50.45
2022-08-19T18:01:51.203Z,50.43
2022-08-19T18:04:20.067Z,50.42
2022-08-19T18:06:53.588Z,50.53
2022-08-19T18:09:41.758Z,50.78
2022-08-19T18:12:38.269Z,50.88
2022-08-19T18:15:09.109Z,51.07
2022-08-19T18:17:37.496Z,51.73
2022-08-19T18:20:12.161Z,52.88
2022-08-19T18:22:44.206Z,54.50
2022-08-19T18:25:26.475Z,55.07
2022-08-19T18:27:58.207Z,55.90
2022-08-19T18:30:31.662Z,57.57
2022-08-19T18:33:00.903Z,59.29
2022-08-19T18:35:31.140Z,60.79
2022-08-19T18:38:22.824Z,61.76
2022-08-19T18:41:09.540Z,63.30
2022-08-19T18:43:56.296Z,59.83
2022-08-19T18:46:42.964Z,57.88
2022-08-19T18:49:17.539Z,60.46
2022-08-19T18:51:45.525Z,63.73
2022-08-19T18:54:13.457Z,62.77
2022-08-19T18:56:44.889Z,59.87
2022-08-19T18:59:16.083Z,61.12
2022-08-19T19:01:50.869Z,63.88
2022-08-19T19:04:25.643Z,60.97
2022-08-19T19:06:54.041Z,60.27
2022-08-19T19:09:24.408Z,60.68
2022-08-19T19:11:57.982Z,61.66
2022-08-19T19:14:48.732Z,60.85
2022-08-19T19:17:17.398Z,61.24
2022-08-19T19:19:45.986Z,61.90
2022-08-19T19:22:18.079Z,60.58
2022-08-19T19:24:46.288Z,60.18
2022-08-19T19:27:18.534Z,62.87
2022-08-19T19:29:51.727Z,65.08
2022-08-19T19:32:22.386Z,64.17
2022-08-19T19:34:50.863Z,63.60
2022-08-19T19:37:18.938Z,62.14
2022-08-19T19:39:48.322Z,61.07
2022-08-19T19:42:21.222Z,59.34
2022-08-19T19:44:54.977Z,61.16
2022-08-19T19:47:28.668Z,64.56
2022-08-19T19:52:46.839Z,61.89
2022-08-19T19:55:18.517Z,61.81
2022-08-19T19:57:48.938Z,60.45
2022-08-19T20:00:18.989Z,58.32
2022-08-19T20:02:50.303Z,59.73
2022-08-19T20:05:21.765Z,64.33
2022-08-19T20:08:35.234Z,63.10
2022-08-19T20:11:06.414Z,61.19
2022-08-19T20:13:35.348Z,60.86
2022-08-19T20:16:04.259Z,59.16
2022-08-19T20:18:32.329Z,61.03
2022-08-19T20:21:00.629Z,64.64
2022-08-19T20:23:28.559Z,63.99
2022-08-19T20:25:56.465Z,62.29
2022-08-19T20:28:25.058Z,61.47
2022-08-19T20:30:54.154Z,62.42
2022-08-19T20:33:22.131Z,61.75
2022-08-19T20:35:50.082Z,60.76
2022-08-19T20:38:18.141Z,58.72
2022-08-19T20:40:46.613Z,58.55
2022-08-19T20:43:15.104Z,62.68
2022-08-19T20:45:43.172Z,64.19
2022-08-19T20:48:12.619Z,63.17
2022-08-19T20:50:40.772Z,61.11
2022-08-19T20:53:15.333Z,58.51
2022-08-19T20:55:45.695Z,59.13
2022-08-19T20:58:13.730Z,61.85
2022-08-19T21:00:44.936Z,66.15
2022-08-19T21:03:18.106Z,65.23
2022-08-19T21:05:49.388Z,62.82
2022-08-19T21:08:20.685Z,61.33
2022-08-19T21:10:50.627Z,59.56
2022-08-19T21:13:20.188Z,60.12
2022-08-19T21:15:49.131Z,65.41
2022-08-19T21:18:19.889Z,64.74
2022-08-19T21:20:48.585Z,62.58
2022-08-19T21:23:20.574Z,61.43
2022-08-19T21:25:54.033Z,60.99
2022-08-19T21:28:35.103Z,60.90
2022-08-19T21:31:06.760Z,61.48
2022-08-19T21:33:34.818Z,61.58
2022-08-19T21:36:04.850Z,60.85
2022-08-19T21:38:33.714Z,58.62
2022-08-19T21:41:05.874Z,58.77
2022-08-19T21:43:36.179Z,63.04
2022-08-19T21:46:06.682Z,64.36
2022-08-19T21:48:35.672Z,62.29
2022-08-19T21:51:04.582Z,60.32
2022-08-19T21:53:34.678Z,58.27
2022-08-19T21:56:06.561Z,59.75
2022-08-19T21:58:38.775Z,64.40
2022-08-19T22:01:08.300Z,64.22
2022-08-19T22:03:38.122Z,62.33
2022-08-19T22:06:07.006Z,62.08
2022-08-19T22:08:35.410Z,62.09
2022-08-19T22:11:04.662Z,62.23
2022-08-19T22:13:40.573Z,62.72
2022-08-19T22:16:10.156Z,62.17
2022-08-19T22:18:38.207Z,62.17
2022-08-19T22:21:11.250Z,62.74
2022-08-19T22:23:44.497Z,63.25
2022-08-19T22:26:15.135Z,62.96
2022-08-19T22:28:43.112Z,62.29
2022-08-19T22:31:11.679Z,62.00
2022-08-19T22:33:40.612Z,61.72
2022-08-19T22:36:08.688Z,61.62
2022-08-19T22:38:37.623Z,61.37
2022-08-19T22:41:07.846Z,60.83
2022-08-19T22:43:37.564Z,58.83
2022-08-19T22:46:17.646Z,59.88
2022-08-19T22:48:47.382Z,64.53
2022-08-19T22:51:34.456Z,64.80
2022-08-19T22:54:02.865Z,62.68
2022-08-19T22:56:31.024Z,61.04
2022-08-19T22:58:58.999Z,60.91
2022-08-19T23:01:30.524Z,61.28
2022-08-19T23:03:59.898Z,60.97
2022-08-19T23:06:33.920Z,60.15
2022-08-19T23:09:07.311Z,58.23
2022-08-19T23:16:21.536Z,63.94
2022-08-19T23:18:49.555Z,63.10
2022-08-19T23:22:40.060Z,62.89
2022-08-19T23:25:12.391Z,62.25
2022-08-19T23:28:04.646Z,60.75
2022-08-19T23:30:36.544Z,60.01
2022-08-19T23:33:50.790Z,60.60
2022-08-19T23:36:21.141Z,61.54
2022-08-19T23:38:52.387Z,61.00
2022-08-19T23:41:23.313Z,61.34
2022-08-19T23:43:54.890Z,61.39
2022-08-19T23:46:27.750Z,60.82
2022-08-19T23:49:00.379Z,60.67
2022-08-19T23:51:28.500Z,58.40
2022-08-19T23:53:56.613Z,59.14
2022-08-19T23:57:42.868Z,64.34
